createdAt,value
2022-12-08T00:01:28.752Z,30.70
2022-12-08T00:03:58.627Z,27.40
2022-12-08T00:06:46.274Z,22.05
2022-12-08T00:09:25.757Z,19.27
2022-12-08T00:11:56.557Z,16.30
2022-12-08T00:14:35.490Z,17.77
2022-12-08T00:17:04.115Z,18.65
2022-12-08T00:19:31.949Z,18.87
2022-12-08T00:21:59.781Z,20.00
2022-12-08T00:24:31.435Z,17.08
2022-12-08T00:26:59.051Z,17.73
2022-12-08T00:29:26.527Z,18.12
2022-12-08T00:31:54.256Z,21.05
2022-12-08T00:34:21.908Z,20.12
2022-12-08T00:36:49.263Z,17.02
2022-12-08T00:39:17.336Z,20.95
2022-12-08T00:42:03.825Z,22.33
2022-12-08T00:44:31.247Z,21.27
2022-12-08T00:46:59.007Z,24.65
2022-12-08T00:49:26.556Z,21.27
2022-12-08T00:51:53.897Z,20.95
2022-12-08T00:54:22.967Z,21.77
2022-12-08T00:56:50.439Z,20.30
2022-12-08T00:59:17.840Z,21.12
2022-12-08T01:01:45.957Z,20.15
2022-12-08T01:04:15.717Z,18.60
2022-12-08T01:06:43.826Z,19.77
2022-12-08T01:09:11.822Z,22.83
2022-12-08T01:11:39.234Z,19.52
2022-12-08T01:14:06.530Z,19.73
2022-12-08T01:16:36.244Z,19.30
2022-12-08T01:19:04.388Z,21.50
2022-12-08T01:21:31.788Z,21.62
2022-12-08T01:24:00.422Z,17.87
2022-12-08T01:26:27.831Z,16.65
2022-12-08T01:28:55.255Z,19.15
2022-12-08T01:31:23.411Z,16.62
2022-12-08T01:33:51.212Z,15.90
2022-12-08T01:36:23.943Z,15.73
2022-12-08T01:38:52.097Z,16.85
2022-12-08T01:41:22.035Z,17.30
2022-12-08T01:44:02.817Z,18.15
2022-12-08T01:46:32.521Z,15.32
2022-12-08T01:49:04.125Z,15.65
2022-12-08T01:51:35.662Z,17.05
2022-12-08T01:54:03.883Z,16.00
2022-12-08T01:56:52.139Z,16.62
2022-12-08T01:59:20.533Z,15.80
2022-12-08T02:01:51.796Z,17.00
2022-12-08T02:04:19.518Z,16.25
2022-12-08T02:06:47.754Z,16.85
2022-12-08T02:09:15.470Z,15.73
2022-12-08T02:11:43.082Z,17.92
2022-12-08T02:14:11.577Z,16.35
2022-12-08T02:16:56.552Z,17.05
2022-12-08T02:19:37.480Z,15.02
2022-12-08T02:22:13.708Z,17.58
2022-12-08T02:24:51.928Z,14.87
2022-12-08T02:27:49.222Z,16.45
2022-12-08T02:30:32.009Z,16.45
2022-12-08T02:35:57.753Z,18.02
2022-12-08T02:38:24.914Z,19.15
2022-12-08T02:41:26.026Z,14.48
2022-12-08T02:44:11.202Z,16.55
2022-12-08T02:46:45.875Z,15.85
2022-12-08T02:49:15.223Z,15.13
2022-12-08T02:51:42.872Z,13.95
2022-12-08T02:54:10.619Z,18.05
2022-12-08T02:57:05.565Z,17.05
2022-12-08T02:59:43.039Z,15.65
2022-12-08T03:02:21.722Z,15.88
2022-12-08T03:05:02.292Z,14.93
2022-12-08T03:07:39.117Z,12.88
2022-12-08T03:10:19.598Z,15.45
2022-12-08T03:12:50.514Z,15.60
2022-12-08T03:15:19.766Z,14.25
2022-12-08T03:17:51.079Z,19.42
2022-12-08T03:20:21.841Z,15.43
2022-12-08T03:22:51.097Z,14.73
2022-12-08T03:25:21.663Z,17.37
2022-12-08T03:27:49.325Z,16.92
2022-12-08T03:30:17.147Z,13.60
2022-12-08T03:32:51.309Z,14.50
2022-12-08T03:35:24.970Z,13.05
2022-12-08T03:37:52.612Z,16.27
2022-12-08T03:40:21.031Z,15.35
2022-12-08T03:42:48.348Z,14.82
2022-12-08T03:45:16.166Z,16.42
2022-12-08T03:47:43.652Z,14.87
2022-12-08T03:50:11.703Z,16.33
2022-12-08T03:52:39.307Z,15.02
2022-12-08T03:55:07.096Z,16.05
2022-12-08T03:57:34.439Z,15.95
2022-12-08T04:00:02.890Z,14.65
2022-12-08T04:02:32.439Z,15.95
2022-12-08T04:05:00.091Z,17.60
2022-12-08T04:07:27.415Z,17.30
2022-12-08T04:09:54.726Z,15.70
2022-12-08T04:12:22.332Z,16.08
2022-12-08T04:14:49.679Z,15.05
2022-12-08T04:17:17.097Z,17.10
2022-12-08T04:19:44.736Z,17.37
2022-12-08T04:22:12.093Z,15.98
2022-12-08T04:24:39.447Z,18.73
2022-12-08T04:27:07.032Z,16.75
2022-12-08T04:29:34.318Z,18.55
2022-12-08T04:32:01.669Z,15.98
2022-12-08T04:34:29.288Z,17.83
2022-12-08T04:36:56.644Z,17.85
2022-12-08T04:39:24.129Z,18.12
2022-12-08T04:41:51.856Z,15.80
2022-12-08T04:44:19.194Z,19.10
2022-12-08T04:46:46.688Z,17.37
2022-12-08T04:49:14.294Z,17.62
2022-12-08T04:51:41.659Z,16.48
2022-12-08T04:54:08.975Z,16.30
2022-12-08T04:56:36.770Z,18.02
2022-12-08T04:59:04.132Z,20.33
2022-12-08T05:01:31.619Z,24.85
2022-12-08T05:03:59.331Z,19.98
2022-12-08T05:06:26.792Z,21.48
2022-12-08T05:08:54.192Z,20.05
2022-12-08T05:11:21.839Z,21.65
2022-12-08T05:13:49.172Z,20.50
2022-12-08T05:16:16.994Z,18.90
2022-12-08T05:18:44.627Z,16.30
2022-12-08T05:21:12.026Z,18.45
2022-12-08T05:23:39.391Z,18.05
2022-12-08T05:26:07.021Z,23.05
2022-12-08T05:28:43.101Z,20.80
2022-12-08T05:31:12.943Z,21.73
2022-12-08T05:33:40.885Z,23.67
2022-12-08T05:36:09.291Z,19.33
2022-12-08T05:38:36.964Z,19.62
2022-12-08T05:41:06.170Z,19.67
2022-12-08T05:43:33.584Z,18.95
2022-12-08T05:46:01.294Z,22.33
2022-12-08T05:48:28.770Z,17.92
2022-12-08T05:50:56.335Z,19.70
2022-12-08T05:53:23.943Z,21.25
2022-12-08T05:55:51.287Z,17.95
2022-12-08T05:58:20.303Z,16.77
2022-12-08T06:00:48.929Z,19.30
2022-12-08T06:03:18.547Z,20.42
2022-12-08T06:05:46.991Z,21.00
2022-12-08T06:08:14.498Z,18.42
2022-12-08T06:10:43.511Z,19.17
2022-12-08T06:13:11.085Z,20.60
2022-12-08T06:15:39.328Z,17.60
2022-12-08T06:18:07.486Z,18.90
2022-12-08T06:20:34.965Z,18.80
2022-12-08T06:23:03.446Z,19.87
2022-12-08T06:25:31.072Z,20.75
2022-12-08T06:27:58.429Z,22.35
2022-12-08T06:30:26.056Z,28.10
2022-12-08T06:32:53.802Z,20.88
2022-12-08T06:35:21.167Z,22.90
2022-12-08T06:37:48.724Z,24.75
2022-12-08T06:40:16.399Z,20.77
2022-12-08T06:42:44.713Z,23.60
2022-12-08T06:45:13.316Z,20.92
2022-12-08T06:47:41.045Z,22.58
2022-12-08T06:50:09.745Z,21.55
2022-12-08T06:52:45.660Z,21.60
2022-12-08T06:55:35.305Z,24.98
2022-12-08T06:58:02.592Z,22.23
2022-12-08T07:00:30.311Z,22.00
2022-12-08T07:02:57.979Z,23.87
2022-12-08T07:05:25.369Z,24.25
2022-12-08T07:07:53.038Z,21.83
2022-12-08T07:10:20.399Z,26.10
2022-12-08T07:12:47.766Z,26.02
2022-12-08T07:15:16.225Z,25.77
2022-12-08T07:17:43.589Z,26.67
2022-12-08T07:20:11.191Z,28.67
2022-12-08T07:22:39.600Z,35.33
2022-12-08T07:25:07.356Z,40.63
2022-12-08T07:27:34.657Z,36.05
2022-12-08T07:30:02.576Z,40.75
2022-12-08T07:32:30.206Z,38.40
2022-12-08T07:34:57.517Z,38.60
2022-12-08T07:37:25.086Z,37.92
2022-12-08T07:39:52.388Z,39.22
2022-12-08T07:42:19.721Z,35.60
2022-12-08T07:44:47.442Z,40.38
2022-12-08T07:47:14.734Z,38.88
2022-12-08T07:49:42.223Z,41.10
2022-12-08T07:52:09.841Z,40.10
2022-12-08T07:54:37.238Z,38.10
2022-12-08T07:57:06.030Z,42.72
2022-12-08T07:59:33.640Z,47.67
2022-12-08T08:02:22.699Z,43.08
2022-12-08T08:04:51.612Z,39.10
2022-12-08T08:07:19.120Z,36.90
2022-12-08T08:09:46.524Z,37.75
2022-12-08T08:12:30.779Z,39.60
2022-12-08T08:15:07.414Z,33.25
2022-12-08T08:17:36.493Z,39.58
2022-12-08T08:20:07.256Z,46.72
2022-12-08T08:22:36.030Z,42.80
2022-12-08T08:25:03.964Z,47.08
2022-12-08T08:27:31.327Z,47.10
2022-12-08T08:29:58.924Z,43.33
2022-12-08T08:32:26.250Z,41.08
2022-12-08T08:34:53.627Z,47.62
2022-12-08T08:37:21.310Z,41.85
2022-12-08T08:39:48.930Z,39.15
2022-12-08T08:42:16.548Z,40.70
2022-12-08T08:44:44.120Z,41.85
2022-12-08T08:47:11.563Z,38.42
2022-12-08T08:49:38.877Z,41.72
2022-12-08T08:52:06.938Z,37.28
2022-12-08T08:54:34.628Z,38.72
2022-12-08T08:57:02.284Z,38.60
2022-12-08T08:59:30.159Z,38.97
2022-12-08T09:01:57.797Z,38.47
2022-12-08T09:04:25.669Z,38.88
2022-12-08T09:06:53.396Z,43.30
2022-12-08T09:09:20.764Z,39.55
2022-12-08T09:11:48.089Z,46.63
2022-12-08T09:14:15.850Z,35.65
2022-12-08T09:16:43.310Z,34.42
2022-12-08T09:19:10.730Z,35.75
2022-12-08T09:21:39.790Z,38.00
2022-12-08T09:24:08.306Z,36.78
2022-12-08T09:26:35.623Z,42.47
2022-12-08T09:29:03.248Z,39.38
2022-12-08T09:31:30.768Z,37.35
2022-12-08T09:33:59.240Z,36.38
2022-12-08T09:36:26.929Z,33.88
2022-12-08T09:38:54.707Z,35.80
2022-12-08T09:41:36.862Z,34.58
2022-12-08T09:44:23.402Z,29.33
2022-12-08T09:46:52.631Z,26.60
2022-12-08T09:49:23.447Z,27.17
2022-12-08T09:51:50.812Z,23.95
2022-12-08T09:54:32.110Z,23.42
2022-12-08T09:57:01.566Z,22.17
2022-12-08T09:59:31.882Z,23.80
2022-12-08T10:02:00.683Z,20.20
2022-12-08T10:04:35.206Z,21.52
2022-12-08T10:07:30.797Z,24.87
2022-12-08T10:10:27.573Z,23.40
2022-12-08T10:13:06.039Z,22.75
2022-12-08T10:15:52.423Z,24.92
2022-12-08T10:18:25.444Z,24.25
2022-12-08T10:20:53.584Z,20.55
2022-12-08T10:23:34.379Z,20.10
2022-12-08T10:26:05.047Z,20.33
2022-12-08T10:28:34.074Z,19.62
2022-12-08T10:31:01.790Z,19.15
2022-12-08T10:33:32.237Z,23.02
2022-12-08T10:36:03.133Z,23.23
2022-12-08T10:38:38.549Z,20.42
2022-12-08T10:41:11.880Z,20.92
2022-12-08T10:43:49.352Z,24.35
2022-12-08T10:46:28.387Z,20.30
2022-12-08T10:49:17.231Z,17.02
2022-12-08T10:51:44.594Z,19.00
2022-12-08T10:54:34.787Z,18.90
2022-12-08T10:57:02.170Z,18.00
2022-12-08T10:59:33.411Z,19.52
2022-12-08T11:02:01.032Z,19.58
2022-12-08T11:04:36.420Z,22.45
2022-12-08T11:07:05.982Z,21.92
2022-12-08T11:09:48.577Z,17.65
2022-12-08T11:12:18.053Z,18.37
2022-12-08T11:14:45.801Z,17.80
2022-12-08T11:17:24.690Z,20.40
2022-12-08T11:20:10.489Z,20.80
2022-12-08T11:22:39.968Z,18.70
2022-12-08T11:25:07.517Z,21.27
2022-12-08T11:27:39.228Z,19.20
2022-12-08T11:30:17.560Z,19.90
2022-12-08T11:32:48.777Z,22.15
2022-12-08T11:35:21.299Z,19.30
2022-12-08T11:37:48.993Z,16.95
2022-12-08T11:40:21.168Z,19.05
2022-12-08T11:45:28.456Z,18.15
2022-12-08T11:48:06.643Z,21.60
2022-12-08T11:50:56.598Z,18.73
2022-12-08T11:53:40.269Z,18.42
2022-12-08T11:56:17.679Z,21.00
2022-12-08T11:58:49.611Z,16.98
2022-12-08T12:01:21.139Z,17.85
2022-12-08T12:03:52.620Z,21.02
2022-12-08T12:06:53.694Z,17.40
2022-12-08T12:09:37.743Z,16.30
2022-12-08T12:12:43.994Z,18.45
2022-12-08T12:15:40.863Z,20.10
2022-12-08T12:18:50.075Z,17.73
2022-12-08T12:21:33.513Z,22.15
2022-12-08T12:24:08.141Z,17.77
2022-12-08T12:26:38.300Z,22.77
2022-12-08T12:29:17.422Z,19.23
2022-12-08T12:31:52.455Z,19.67
2022-12-08T12:34:24.290Z,20.20
2022-12-08T12:36:54.857Z,34.38
2022-12-08T12:39:26.543Z,19.62
2022-12-08T12:42:00.111Z,23.20
2022-12-08T12:44:33.424Z,18.08
2022-12-08T12:47:02.900Z,23.48
2022-12-08T12:49:39.580Z,20.75
2022-12-08T12:52:10.153Z,20.92
2022-12-08T12:54:42.305Z,19.20
2022-12-08T13:00:05.207Z,19.90
2022-12-08T13:02:46.577Z,21.95
2022-12-08T13:05:27.017Z,19.95
2022-12-08T13:07:58.193Z,19.25
2022-12-08T13:10:29.344Z,18.98
2022-12-08T13:13:12.633Z,19.15
2022-12-08T13:16:26.217Z,19.95
2022-12-08T13:19:04.311Z,19.98
2022-12-08T13:21:35.179Z,19.55
2022-12-08T13:24:19.802Z,20.37
2022-12-08T13:27:07.343Z,24.17
2022-12-08T13:29:35.719Z,21.45
2022-12-08T13:32:04.123Z,24.50
2022-12-08T13:34:45.426Z,22.08
2022-12-08T13:37:15.911Z,21.90
2022-12-08T13:39:56.541Z,22.17
2022-12-08T13:42:36.289Z,21.42
2022-12-08T13:45:33.635Z,19.08
2022-12-08T13:48:25.628Z,22.13
2022-12-08T13:57:19.003Z,22.23
2022-12-08T13:59:47.001Z,20.73
2022-12-08T14:02:31.803Z,24.58
2022-12-08T14:07:48.656Z,25.60
2022-12-08T14:10:26.303Z,21.35
2022-12-08T14:12:59.919Z,22.33
2022-12-08T14:15:31.386Z,19.05
2022-12-08T14:18:03.035Z,18.95
2022-12-08T14:20:33.835Z,17.87
2022-12-08T14:23:09.845Z,20.77
2022-12-08T14:25:38.723Z,21.30
2022-12-08T14:28:06.323Z,19.85
2022-12-08T14:30:34.652Z,23.10
2022-12-08T14:33:03.775Z,23.40
2022-12-08T14:35:33.357Z,21.75
2022-12-08T14:38:06.153Z,22.60
2022-12-08T14:40:42.016Z,24.35
2022-12-08T14:43:09.302Z,24.05
2022-12-08T14:45:42.906Z,24.70
2022-12-08T14:48:21.995Z,25.27
2022-12-08T14:51:14.383Z,23.58
2022-12-08T14:53:52.572Z,27.48
2022-12-08T14:56:46.148Z,23.80
2022-12-08T14:59:34.591Z,23.17
2022-12-08T15:02:24.223Z,20.20
2022-12-08T15:05:11.053Z,18.48
2022-12-08T15:07:54.655Z,23.42
2022-12-08T15:10:25.248Z,20.15
2022-12-08T15:13:10.967Z,25.02
2022-12-08T15:15:55.814Z,22.35
2022-12-08T15:18:38.323Z,19.60
2022-12-08T15:21:08.987Z,22.05
2022-12-08T15:23:39.351Z,21.73
2022-12-08T15:26:06.779Z,21.12
2022-12-08T15:28:34.233Z,24.70
2022-12-08T15:31:01.866Z,23.05
2022-12-08T15:33:29.203Z,25.70
2022-12-08T15:35:56.562Z,22.55
2022-12-08T15:38:26.428Z,26.67
2022-12-08T15:40:54.474Z,23.35
2022-12-08T15:43:22.539Z,21.80
2022-12-08T15:45:59.839Z,23.70
2022-12-08T15:48:29.276Z,23.60
2022-12-08T15:50:57.720Z,22.85
2022-12-08T15:53:25.328Z,23.62
2022-12-08T15:56:25.760Z,23.17
2022-12-08T15:58:57.342Z,24.55
2022-12-08T16:01:26.086Z,26.60
2022-12-08T16:04:47.452Z,28.20
2022-12-08T16:09:38.606Z,28.92
2022-12-08T16:12:35.547Z,21.30
2022-12-08T16:18:03.040Z,27.02
2022-12-08T16:21:05.232Z,21.58
2022-12-08T16:23:34.714Z,25.55
2022-12-08T16:26:24.061Z,24.17
2022-12-08T16:28:54.949Z,23.48
2022-12-08T16:31:23.681Z,24.95
2022-12-08T16:33:51.267Z,25.25
2022-12-08T16:36:18.575Z,25.92
2022-12-08T16:38:46.220Z,24.05
2022-12-08T16:41:36.102Z,22.23
2022-12-08T16:44:05.869Z,20.65
2022-12-08T16:46:33.571Z,29.50
2022-12-08T16:49:00.951Z,22.25
2022-12-08T16:51:28.633Z,20.00
2022-12-08T16:53:57.026Z,21.70
2022-12-08T16:56:30.620Z,27.10
2022-12-08T16:59:00.709Z,21.90
2022-12-08T17:01:28.100Z,20.30
2022-12-08T17:04:29.299Z,18.02
2022-12-08T17:06:43.046Z,20.45
2022-12-08T17:09:10.463Z,16.58
2022-12-08T17:11:42.940Z,18.05
2022-12-08T17:14:14.941Z,20.75
2022-12-08T17:16:42.981Z,26.62
2022-12-08T17:19:12.795Z,25.00
2022-12-08T17:21:40.309Z,22.17
2022-12-08T17:24:07.762Z,20.95
2022-12-08T17:26:35.444Z,21.52
2022-12-08T17:29:03.899Z,18.10
2022-12-08T17:31:32.432Z,19.30
2022-12-08T17:34:05.662Z,16.87
2022-12-08T17:36:33.046Z,17.73
2022-12-08T17:39:01.153Z,23.40
2022-12-08T17:41:29.006Z,31.15
2022-12-08T17:43:56.431Z,38.30
2022-12-08T17:46:24.451Z,34.75
2022-12-08T17:48:52.056Z,33.88
2022-12-08T17:51:19.771Z,46.95
2022-12-08T17:53:47.451Z,37.28
2022-12-08T17:56:20.199Z,24.00
2022-12-08T17:58:52.937Z,23.35
2022-12-08T18:01:23.462Z,25.88
2022-12-08T18:03:51.608Z,25.48
2022-12-08T18:06:18.982Z,26.45
2022-12-08T18:08:46.439Z,24.55
2022-12-08T18:11:17.663Z,20.48
2022-12-08T18:13:45.889Z,23.85
2022-12-08T18:16:14.047Z,22.83
2022-12-08T18:18:41.996Z,19.87
2022-12-08T18:21:09.912Z,21.20
2022-12-08T18:23:38.106Z,23.60
2022-12-08T18:26:07.299Z,25.40
2022-12-08T18:28:35.603Z,21.30
2022-12-08T18:31:17.371Z,22.23
2022-12-08T18:33:46.623Z,24.02
2022-12-08T18:36:17.047Z,23.70
2022-12-08T18:38:44.945Z,24.10
2022-12-08T18:41:17.918Z,22.17
2022-12-08T18:43:45.723Z,24.10
2022-12-08T18:46:14.443Z,24.73
2022-12-08T18:48:47.661Z,22.60
2022-12-08T18:51:20.881Z,25.48
2022-12-08T18:53:48.308Z,21.67
2022-12-08T18:56:25.371Z,25.27
2022-12-08T18:58:54.028Z,21.75
2022-12-08T19:01:24.267Z,19.95
2022-12-08T19:04:19.872Z,21.23
2022-12-08T19:06:40.502Z,18.95
2022-12-08T19:09:09.063Z,23.27
2022-12-08T19:11:36.396Z,19.98
2022-12-08T19:14:04.655Z,21.52
2022-12-08T19:16:32.012Z,20.33
2022-12-08T19:18:59.390Z,21.42
2022-12-08T19:21:27.303Z,19.60
2022-12-08T19:23:58.246Z,19.12
2022-12-08T19:26:27.388Z,21.33
2022-12-08T19:28:55.012Z,20.15
2022-12-08T19:31:22.467Z,24.90
2022-12-08T19:33:49.943Z,18.87
2022-12-08T19:36:20.824Z,21.87
2022-12-08T19:39:07.247Z,24.37
2022-12-08T19:41:55.209Z,26.55
2022-12-08T19:44:46.558Z,30.90
2022-12-08T19:47:14.694Z,29.52
2022-12-08T19:49:42.099Z,20.80
2022-12-08T19:52:09.582Z,22.80
2022-12-08T19:54:37.243Z,19.70
2022-12-08T19:57:04.582Z,19.98
2022-12-08T19:59:31.946Z,20.90
2022-12-08T20:02:00.167Z,21.48
2022-12-08T20:04:27.874Z,21.15
2022-12-08T20:06:56.469Z,19.55
2022-12-08T20:09:24.260Z,19.12
2022-12-08T20:11:54.680Z,20.60
2022-12-08T20:14:22.780Z,19.35
2022-12-08T20:16:50.660Z,18.98
2022-12-08T20:19:18.652Z,20.08
2022-12-08T20:21:46.004Z,20.52
2022-12-08T20:24:13.392Z,20.12
2022-12-08T20:26:41.090Z,22.33
2022-12-08T20:29:08.915Z,20.08
2022-12-08T20:31:36.344Z,20.92
2022-12-08T20:34:04.071Z,21.48
2022-12-08T20:36:31.530Z,20.40
2022-12-08T20:38:58.927Z,20.52
2022-12-08T20:41:26.583Z,22.62
2022-12-08T20:43:54.383Z,21.58
2022-12-08T20:46:21.889Z,22.70
2022-12-08T20:48:49.737Z,21.75
2022-12-08T20:51:18.871Z,20.95
2022-12-08T20:53:46.447Z,23.55
2022-12-08T20:56:19.149Z,22.23
2022-12-08T20:58:47.043Z,26.45
2022-12-08T21:01:16.797Z,25.10
2022-12-08T21:03:45.479Z,24.90
2022-12-08T21:06:13.608Z,23.52
2022-12-08T21:08:42.335Z,23.90
2022-12-08T21:11:10.101Z,27.30
2022-12-08T21:13:38.598Z,36.33
2022-12-08T21:16:06.704Z,27.42
2022-12-08T21:18:39.234Z,30.48
2022-12-08T21:21:11.272Z,28.55
2022-12-08T21:23:38.970Z,24.42
2022-12-08T21:26:13.757Z,25.77
2022-12-08T21:28:41.999Z,26.00
2022-12-08T21:31:10.853Z,24.10
2022-12-08T21:33:38.828Z,27.25
2022-12-08T21:36:09.133Z,27.33
2022-12-08T21:38:38.190Z,25.02
2022-12-08T21:41:08.263Z,26.92
2022-12-08T21:43:36.367Z,28.17
2022-12-08T21:46:04.329Z,33.15
2022-12-08T21:48:31.859Z,31.08
2022-12-08T21:51:04.721Z,29.37
2022-12-08T21:53:32.431Z,28.40
2022-12-08T21:55:59.832Z,26.67
2022-12-08T21:58:27.220Z,27.48
2022-12-08T22:00:54.875Z,26.23
2022-12-08T22:03:22.963Z,29.48
2022-12-08T22:05:50.836Z,23.05
2022-12-08T22:08:18.236Z,27.90
2022-12-08T22:10:48.977Z,28.75
2022-12-08T22:13:16.525Z,25.73
2022-12-08T22:15:44.627Z,27.30
2022-12-08T22:18:12.439Z,26.58
2022-12-08T22:20:43.919Z,27.40
2022-12-08T22:23:12.196Z,27.92
2022-12-08T22:25:39.505Z,27.87
2022-12-08T22:28:06.885Z,28.05
2022-12-08T22:30:39.030Z,29.42
2022-12-08T22:33:06.778Z,29.42
2022-12-08T22:35:34.354Z,27.58
2022-12-08T22:38:01.643Z,27.10
2022-12-08T22:40:29.165Z,28.35
2022-12-08T22:42:57.318Z,29.75
2022-12-08T22:45:24.824Z,30.20
2022-12-08T22:47:52.338Z,28.90
2022-12-08T22:50:19.893Z,32.20
2022-12-08T22:52:47.424Z,30.42
2022-12-08T22:55:14.922Z,29.02
2022-12-08T22:57:42.724Z,33.03
2022-12-08T23:00:11.617Z,27.62
2022-12-08T23:02:39.439Z,29.17
2022-12-08T23:05:07.296Z,29.15
2022-12-08T23:07:34.749Z,31.05
2022-12-08T23:10:02.210Z,31.80
2022-12-08T23:12:29.849Z,35.22
2022-12-08T23:14:57.489Z,30.62
2022-12-08T23:17:25.709Z,32.05
2022-12-08T23:19:53.740Z,28.20
2022-12-08T23:22:21.139Z,31.77
2022-12-08T23:24:48.596Z,28.73
2022-12-08T23:27:16.244Z,31.75
2022-12-08T23:29:43.832Z,28.30
2022-12-08T23:32:11.308Z,31.25
2022-12-08T23:34:39.223Z,30.52
2022-12-08T23:37:06.708Z,32.55
2022-12-08T23:39:34.527Z,33.80
2022-12-08T23:42:02.521Z,31.52
2022-12-08T23:44:30.050Z,31.73
2022-12-08T23:46:57.561Z,31.20
2022-12-08T23:49:25.254Z,31.45
2022-12-08T23:51:52.575Z,34.28
2022-12-08T23:54:19.880Z,35.80
2022-12-08T23:56:47.462Z,32.38
2022-12-08T23:59:14.864Z,29.25
